createdAt,value
2022-08-25T00:01:32.523Z,4.22
2022-08-25T00:04:43.376Z,4.57
2022-08-25T00:07:12.297Z,5.95
2022-08-25T00:09:48.064Z,4.75
2022-08-25T00:12:15.841Z,6.00
2022-08-25T00:14:43.977Z,5.70
2022-08-25T00:17:12.069Z,4.68
2022-08-25T00:19:39.941Z,6.50
2022-08-25T00:22:08.540Z,5.50
2022-08-25T00:32:28.774Z,5.53
2022-08-25T00:34:55.050Z,5.10
2022-08-25T00:37:21.368Z,5.18
2022-08-25T00:43:45.230Z,5.32
2022-08-25T00:46:13.637Z,5.70
2022-08-25T00:48:43.112Z,5.38
2022-08-25T00:51:13.714Z,4.72
2022-08-25T01:15:50.293Z,5.85
2022-08-25T01:21:59.399Z,6.57
2022-08-25T01:24:33.871Z,6.45
2022-08-25T01:27:02.279Z,6.13
2022-08-25T01:29:31.276Z,6.78
2022-08-25T01:32:00.804Z,5.72
2022-08-25T01:34:30.636Z,6.20
2022-08-25T01:37:00.536Z,6.03
2022-08-25T01:39:29.744Z,6.43
2022-08-25T01:42:14.771Z,6.97
2022-08-25T01:44:45.013Z,6.63
2022-08-25T01:47:13.241Z,6.57
2022-08-25T01:49:41.407Z,8.75
2022-08-25T01:52:13.596Z,7.07
2022-08-25T01:54:41.321Z,6.82
2022-08-25T01:57:10.080Z,6.90
2022-08-25T01:59:37.869Z,7.32
2022-08-25T02:02:06.374Z,7.82
2022-08-25T02:04:34.334Z,7.18
2022-08-25T02:07:06.062Z,6.88
2022-08-25T02:09:36.239Z,6.15
2022-08-25T02:12:05.042Z,6.63
2022-08-25T02:14:32.806Z,6.78
2022-08-25T02:17:00.621Z,8.00
2022-08-25T02:19:30.909Z,6.93
2022-08-25T02:21:59.023Z,7.00
2022-08-25T02:24:26.737Z,6.80
2022-08-25T02:34:25.025Z,7.70
2022-08-25T02:36:52.689Z,7.60
2022-08-25T02:43:08.407Z,7.20
2022-08-25T02:45:36.755Z,7.78
2022-08-25T02:48:04.936Z,9.00
2022-08-25T02:50:34.458Z,7.93
2022-08-25T02:53:02.369Z,8.05
2022-08-25T02:59:19.405Z,7.53
2022-08-25T03:01:47.481Z,7.88
2022-08-25T03:04:15.131Z,7.95
2022-08-25T03:14:18.830Z,7.93
2022-08-25T03:17:48.250Z,8.77
2022-08-25T03:20:18.983Z,8.80
2022-08-25T03:22:46.731Z,8.82
2022-08-25T03:25:32.007Z,8.15
2022-08-25T03:27:59.930Z,8.70
2022-08-25T03:30:30.000Z,9.10
2022-08-25T03:32:57.864Z,8.32
2022-08-25T03:35:25.631Z,8.25
2022-08-25T03:37:57.708Z,8.32
2022-08-25T03:40:26.374Z,9.38
2022-08-25T03:42:55.025Z,8.25
2022-08-25T03:45:22.858Z,8.30
2022-08-25T03:47:53.493Z,8.73
2022-08-25T03:50:23.095Z,8.25
2022-08-25T03:52:55.656Z,9.35
2022-08-25T03:55:24.924Z,8.50
2022-08-25T03:57:53.757Z,8.63
2022-08-25T04:00:22.860Z,9.57
2022-08-25T04:02:51.994Z,9.32
2022-08-25T04:06:01.504Z,9.07
2022-08-25T04:08:29.242Z,9.82
2022-08-25T04:10:56.919Z,9.00
2022-08-25T04:13:24.691Z,10.05
2022-08-25T04:15:52.377Z,9.40
2022-08-25T04:18:21.368Z,8.65
2022-08-25T04:20:49.057Z,8.82
2022-08-25T04:30:48.129Z,8.30
2022-08-25T04:33:19.559Z,10.98
2022-08-25T04:35:50.633Z,11.32
2022-08-25T04:38:18.803Z,10.38
2022-08-25T04:40:46.516Z,8.55
2022-08-25T04:43:14.270Z,10.65
2022-08-25T04:45:42.037Z,8.73
2022-08-25T04:48:09.964Z,9.23
2022-08-25T04:50:39.744Z,9.57
2022-08-25T04:53:08.795Z,9.45
2022-08-25T04:55:41.838Z,8.75
2022-08-25T04:58:10.154Z,11.02
2022-08-25T05:00:43.568Z,9.20
2022-08-25T05:03:11.350Z,10.35
2022-08-25T05:05:39.367Z,9.73
2022-08-25T05:08:08.488Z,9.45
2022-08-25T05:10:41.353Z,11.10
2022-08-25T05:13:11.104Z,9.35
2022-08-25T05:15:54.000Z,12.38
2022-08-25T05:18:24.030Z,9.30
2022-08-25T05:20:53.761Z,8.43
2022-08-25T05:23:23.821Z,9.30
2022-08-25T05:29:54.054Z,9.63
2022-08-25T05:32:21.748Z,9.63
2022-08-25T05:34:49.457Z,9.82
2022-08-25T05:37:17.188Z,9.75
2022-08-25T05:43:33.186Z,10.48
2022-08-25T05:46:01.400Z,12.77
2022-08-25T05:48:29.142Z,10.02
2022-08-25T06:02:44.178Z,10.75
2022-08-25T06:05:13.803Z,10.65
2022-08-25T06:07:42.127Z,9.13
2022-08-25T06:10:12.070Z,9.85
2022-08-25T06:12:41.954Z,12.45
2022-08-25T06:15:13.055Z,10.13
2022-08-25T06:17:42.965Z,11.27
2022-08-25T06:20:13.668Z,9.57
2022-08-25T06:22:41.955Z,10.48
2022-08-25T06:25:12.703Z,9.68
2022-08-25T06:27:40.462Z,9.52
2022-08-25T06:30:11.124Z,11.88
2022-08-25T06:32:41.178Z,9.57
2022-08-25T06:35:13.713Z,10.18
2022-08-25T06:52:54.315Z,10.13
2022-08-25T06:55:22.011Z,9.00
2022-08-25T07:01:52.186Z,8.30
2022-08-25T07:04:20.705Z,8.63
2022-08-25T07:10:40.046Z,8.32
2022-08-25T07:13:07.700Z,8.13
2022-08-25T07:15:39.905Z,7.75
2022-08-25T07:18:08.279Z,7.50
2022-08-25T07:20:36.418Z,9.18
2022-08-25T07:23:04.739Z,8.25
2022-08-25T07:25:32.700Z,7.00
2022-08-25T07:28:02.134Z,6.60
2022-08-25T07:34:37.738Z,8.15
2022-08-25T07:37:06.810Z,9.23
2022-08-25T07:39:36.075Z,8.20
2022-08-25T07:42:04.916Z,8.90
2022-08-25T07:44:41.040Z,8.52
2022-08-25T07:47:11.221Z,7.78
2022-08-25T07:49:39.858Z,8.63
2022-08-25T07:52:09.035Z,8.90
2022-08-25T07:54:38.437Z,7.88
2022-08-25T07:57:09.023Z,7.65
2022-08-25T07:59:41.839Z,8.27
2022-08-25T08:02:17.995Z,7.35
2022-08-25T08:12:23.369Z,6.03
2022-08-25T08:14:53.430Z,7.82
2022-08-25T08:24:57.214Z,6.90
2022-08-25T08:27:25.415Z,7.80
2022-08-25T08:30:53.663Z,6.88
2022-08-25T08:33:24.573Z,8.23
2022-08-25T08:35:59.240Z,6.35
2022-08-25T08:38:27.361Z,6.90
2022-08-25T08:41:23.139Z,7.20
2022-08-25T08:43:57.404Z,6.63
2022-08-25T08:46:30.496Z,6.75
2022-08-25T08:49:05.589Z,7.05
2022-08-25T08:51:39.817Z,6.57
2022-08-25T08:54:15.595Z,5.15
2022-08-25T08:56:48.587Z,6.25
2022-08-25T09:03:16.417Z,5.47
2022-08-25T09:13:30.891Z,8.05
2022-08-25T09:16:34.511Z,6.05
2022-08-25T09:19:23.508Z,7.93
2022-08-25T09:21:58.271Z,6.15
2022-08-25T09:40:47.242Z,5.50
2022-08-25T09:54:43.843Z,5.28
2022-08-25T09:57:29.828Z,5.35
2022-08-25T10:03:58.061Z,6.75
2022-08-25T10:06:26.896Z,6.25
2022-08-25T10:08:57.896Z,5.82
2022-08-25T10:15:29.681Z,6.35
2022-08-25T10:18:25.949Z,7.03
2022-08-25T10:21:07.503Z,6.18
2022-08-25T10:23:37.280Z,6.90
2022-08-25T10:26:09.263Z,5.95
2022-08-25T10:28:47.090Z,5.75
2022-08-25T10:35:31.494Z,5.97
2022-08-25T10:38:10.267Z,5.80
2022-08-25T10:50:34.544Z,5.47
2022-08-25T10:53:19.321Z,5.72
2022-08-25T10:55:56.058Z,6.97
2022-08-25T10:58:31.404Z,6.60
2022-08-25T11:01:06.519Z,7.85
2022-08-25T11:03:45.459Z,7.22
2022-08-25T11:09:51.902Z,8.15
2022-08-25T11:12:29.806Z,7.80
2022-08-25T11:22:40.465Z,5.63
2022-08-25T11:25:14.476Z,7.82
2022-08-25T11:27:48.078Z,6.32
2022-08-25T11:34:03.522Z,8.25
2022-08-25T11:36:35.437Z,8.18
2022-08-25T11:39:18.556Z,8.18
2022-08-25T11:42:00.627Z,7.55
2022-08-25T11:44:51.855Z,7.28
2022-08-25T11:47:51.801Z,7.40
2022-08-25T11:57:53.639Z,7.95
2022-08-25T12:00:39.900Z,6.88
2022-08-25T12:03:51.876Z,7.95
2022-08-25T12:06:26.607Z,9.35
2022-08-25T12:09:12.694Z,7.60
2022-08-25T12:12:21.054Z,7.57
2022-08-25T12:14:52.866Z,7.88
2022-08-25T12:17:26.815Z,8.00
2022-08-25T12:19:59.775Z,7.88
2022-08-25T12:22:51.363Z,10.05
2022-08-25T12:44:34.874Z,7.88
2022-08-25T12:47:12.334Z,10.02
2022-08-25T12:49:40.639Z,10.98
2022-08-25T12:52:12.980Z,8.32
2022-08-25T12:54:47.982Z,8.65
2022-08-25T12:57:32.579Z,10.82
2022-08-25T13:00:13.107Z,10.15
2022-08-25T13:10:26.659Z,10.75
2022-08-25T13:13:02.171Z,9.60
2022-08-25T13:15:39.011Z,8.43
2022-08-25T13:18:26.061Z,10.50
2022-08-25T13:20:56.948Z,8.43
2022-08-25T13:23:29.232Z,10.18
2022-08-25T13:25:58.249Z,10.82
2022-08-25T13:28:30.365Z,9.20
2022-08-25T13:31:03.134Z,9.23
2022-08-25T13:33:33.157Z,9.15
2022-08-25T13:36:19.747Z,10.45
2022-08-25T13:38:49.548Z,10.80
2022-08-25T13:41:29.611Z,9.65
2022-08-25T13:44:02.506Z,12.15
2022-08-25T13:46:32.012Z,14.10
2022-08-25T13:49:06.199Z,12.13
2022-08-25T13:51:34.421Z,15.52
2022-08-25T14:01:49.696Z,10.60
2022-08-25T14:04:26.841Z,9.75
2022-08-25T14:07:27.194Z,10.00
2022-08-25T14:10:35.632Z,12.40
2022-08-25T14:24:24.447Z,10.77
2022-08-25T14:26:53.999Z,9.65
2022-08-25T14:29:23.662Z,11.40
2022-08-25T14:47:17.275Z,9.63
2022-08-25T14:49:45.858Z,11.45
2022-08-25T14:52:26.687Z,12.80
2022-08-25T14:54:56.989Z,11.70
2022-08-25T15:01:37.069Z,12.27
2022-08-25T15:04:10.378Z,16.50
2022-08-25T15:06:42.442Z,14.40
2022-08-25T15:09:11.953Z,12.05
2022-08-25T15:11:42.237Z,13.70
2022-08-25T15:14:11.201Z,13.23
2022-08-25T15:16:42.903Z,11.77
2022-08-25T15:19:14.529Z,10.88
2022-08-25T15:21:44.737Z,12.95
2022-08-25T15:24:17.566Z,12.50
2022-08-25T15:29:19.038Z,13.68
2022-08-25T15:31:46.772Z,13.35
2022-08-25T15:34:16.357Z,10.70
2022-08-25T15:55:18.110Z,16.02
2022-08-25T15:57:47.908Z,11.98
2022-08-25T16:00:19.100Z,14.90
2022-08-25T16:02:47.017Z,15.52
2022-08-25T16:05:16.205Z,13.10
2022-08-25T16:07:45.763Z,12.32
2022-08-25T16:10:13.684Z,14.10
2022-08-25T16:12:42.891Z,12.18
2022-08-25T16:15:12.051Z,11.48
2022-08-25T16:17:43.730Z,12.40
2022-08-25T16:20:13.844Z,11.70
2022-08-25T16:22:43.430Z,11.88
2022-08-25T16:25:11.920Z,11.27
2022-08-25T16:27:39.665Z,13.77
2022-08-25T16:30:14.953Z,15.30
2022-08-25T16:32:46.233Z,13.93
2022-08-25T16:35:14.391Z,11.88
2022-08-25T16:37:42.757Z,12.25
2022-08-25T16:40:13.599Z,12.98
2022-08-25T16:42:42.815Z,13.40
2022-08-25T16:45:12.549Z,11.93
2022-08-25T16:47:42.618Z,12.07
2022-08-25T16:50:11.677Z,12.68
2022-08-25T16:53:08.772Z,14.15
2022-08-25T16:55:39.337Z,12.55
2022-08-25T16:58:07.961Z,11.80
2022-08-25T17:00:39.220Z,10.93
2022-08-25T17:03:08.143Z,13.38
2022-08-25T17:05:41.729Z,10.38
2022-08-25T17:08:26.834Z,11.20
2022-08-25T17:10:54.552Z,12.32
2022-08-25T17:13:22.393Z,9.23
2022-08-25T17:15:52.122Z,10.73
2022-08-25T17:18:20.534Z,11.38
2022-08-25T17:20:48.635Z,10.93
2022-08-25T17:23:21.029Z,9.05
2022-08-25T17:25:51.026Z,18.42
2022-08-25T17:28:19.175Z,9.07
2022-08-25T17:46:02.147Z,12.48
2022-08-25T17:48:33.062Z,11.07
2022-08-25T17:51:01.945Z,10.18
2022-08-25T17:53:30.379Z,12.23
2022-08-25T17:56:01.425Z,10.18
2022-08-25T17:58:30.630Z,9.35
2022-08-25T18:00:59.206Z,11.00
2022-08-25T18:03:29.280Z,13.18
2022-08-25T18:05:57.232Z,13.23
2022-08-25T18:08:32.073Z,9.30
2022-08-25T18:11:02.787Z,12.60
2022-08-25T18:13:31.494Z,10.63
2022-08-25T18:15:59.317Z,12.10
2022-08-25T18:18:28.643Z,10.30
2022-08-25T18:20:56.636Z,9.63
2022-08-25T18:23:24.808Z,10.90
2022-08-25T18:25:52.466Z,12.93
2022-08-25T18:28:28.777Z,12.60
2022-08-25T18:30:56.832Z,10.55
2022-08-25T18:33:24.605Z,11.52
2022-08-25T18:35:53.683Z,11.52
2022-08-25T18:38:38.941Z,12.13
2022-08-25T18:41:11.253Z,12.70
2022-08-25T18:43:39.745Z,10.68
2022-08-25T18:46:08.245Z,11.65
2022-08-25T18:48:38.054Z,11.48
2022-08-25T18:51:07.885Z,12.73
2022-08-25T18:53:50.167Z,11.10
2022-08-25T18:56:19.247Z,13.15
2022-08-25T18:58:47.186Z,15.52
2022-08-25T19:01:16.310Z,11.95
2022-08-25T19:03:44.691Z,10.90
2022-08-25T19:10:49.386Z,10.80
2022-08-25T19:13:18.451Z,13.27
2022-08-25T19:15:52.419Z,11.00
2022-08-25T19:18:25.910Z,16.30
2022-08-25T19:20:57.979Z,11.93
2022-08-25T19:23:27.006Z,12.30
2022-08-25T19:38:33.561Z,10.85
2022-08-25T19:40:59.595Z,13.38
2022-08-25T19:43:27.364Z,16.08
2022-08-25T19:45:55.146Z,12.75
2022-08-25T19:48:22.899Z,11.98
2022-08-25T19:50:56.164Z,12.80
2022-08-25T19:53:24.308Z,12.30
2022-08-25T20:18:31.252Z,11.75
2022-08-25T20:20:59.018Z,11.20
2022-08-25T20:31:02.191Z,12.13
2022-08-25T20:33:31.775Z,11.50
2022-08-25T20:35:59.657Z,10.18
2022-08-25T20:38:31.006Z,10.20
2022-08-25T20:40:59.007Z,10.32
2022-08-25T20:48:50.771Z,10.80
2022-08-25T20:51:23.497Z,10.30
2022-08-25T20:53:51.273Z,10.55
2022-08-25T20:56:20.484Z,10.48
2022-08-25T20:58:48.622Z,11.20
2022-08-25T21:01:23.118Z,11.98
2022-08-25T21:03:51.467Z,11.52
2022-08-25T21:06:19.247Z,10.80
2022-08-25T21:08:49.907Z,10.43
2022-08-25T21:11:19.422Z,14.15
2022-08-25T21:13:47.116Z,12.65
2022-08-25T21:16:14.774Z,12.05
2022-08-25T21:18:47.974Z,12.43
2022-08-25T21:21:16.667Z,9.18
2022-08-25T21:23:48.073Z,10.80
2022-08-25T21:26:20.523Z,11.48
2022-08-25T21:28:48.389Z,13.75
2022-08-25T21:31:17.525Z,10.80
2022-08-25T21:33:46.475Z,12.30
2022-08-25T21:36:19.486Z,10.55
2022-08-25T21:38:49.026Z,11.20
2022-08-25T21:41:20.706Z,12.00
2022-08-25T21:43:48.826Z,14.27
2022-08-25T21:46:18.902Z,11.30
2022-08-25T21:48:47.493Z,11.30
2022-08-25T21:51:19.093Z,11.07
2022-08-25T21:53:47.372Z,12.60
2022-08-25T21:56:18.733Z,12.20
2022-08-25T21:58:49.140Z,10.15
2022-08-25T22:01:20.384Z,12.02
2022-08-25T22:03:48.538Z,10.55
2022-08-25T22:06:16.462Z,11.15
2022-08-25T22:08:44.460Z,12.18
2022-08-25T22:11:15.951Z,12.73
2022-08-25T22:13:47.513Z,11.68
2022-08-25T22:16:21.523Z,14.95
2022-08-25T22:30:05.281Z,12.95
2022-08-25T22:32:33.007Z,10.48
2022-08-25T22:35:00.832Z,13.18
2022-08-25T22:37:28.530Z,14.73
2022-08-25T22:40:00.755Z,15.38
2022-08-25T22:42:29.480Z,14.32
2022-08-25T22:44:57.179Z,12.73
2022-08-25T22:47:26.385Z,13.07
2022-08-25T22:49:55.571Z,15.82
2022-08-25T22:52:30.284Z,12.63
2022-08-25T22:55:01.862Z,15.10
2022-08-25T22:57:29.590Z,13.20
2022-08-25T22:59:59.707Z,11.27
2022-08-25T23:02:31.080Z,13.68
2022-08-25T23:05:00.959Z,11.82
2022-08-25T23:11:39.349Z,12.18
2022-08-25T23:15:03.252Z,11.82
2022-08-25T23:17:32.447Z,12.02
2022-08-25T23:20:00.118Z,12.00
2022-08-25T23:22:27.523Z,11.77
2022-08-25T23:24:55.193Z,12.32
2022-08-25T23:35:50.428Z,13.35
2022-08-25T23:41:51.911Z,11.45
2022-08-25T23:44:19.991Z,14.55
2022-08-25T23:46:48.565Z,11.13
2022-08-25T23:49:18.453Z,12.25
2022-08-25T23:51:47.822Z,11.63
2022-08-25T23:54:16.778Z,12.55
2022-08-25T23:56:52.324Z,12.98
2022-08-25T23:59:24.374Z,11.82
